sensor_id;sensor_type;location;lat;lon;timestamp;P1;durP1;ratioP1;P2;durP2;ratioP2
43664;SDS011;29263;48.172;11.484;2023-05-18T00:02:17;6.53;;;3.00;;
43664;SDS011;29263;48.172;11.484;2023-05-18T00:04:45;8.10;;;3.00;;
43664;SDS011;29263;48.172;11.484;2023-05-18T00:07:11;4.53;;;3.10;;
43664;SDS011;29263;48.172;11.484;2023-05-18T00:09:38;6.60;;;3.53;;
43664;SDS011;29263;48.172;11.484;2023-05-18T00:12:05;7.40;;;2.93;;
43664;SDS011;29263;48.172;11.484;2023-05-18T00:14:33;7.23;;;3.30;;
43664;SDS011;29263;48.172;11.484;2023-05-18T00:16:58;6.67;;;3.10;;
43664;SDS011;29263;48.172;11.484;2023-05-18T00:19:25;5.00;;;2.90;;
43664;SDS011;29263;48.172;11.484;2023-05-18T00:21:52;4.57;;;2.87;;
43664;SDS011;29263;48.172;11.484;2023-05-18T00:24:20;6.07;;;3.20;;
43664;SDS011;29263;48.172;11.484;2023-05-18T00:26:46;4.73;;;3.13;;
43664;SDS011;29263;48.172;11.484;2023-05-18T00:29:13;6.20;;;2.90;;
43664;SDS011;29263;48.172;11.484;2023-05-18T00:31:40;8.10;;;3.57;;
43664;SDS011;29263;48.172;11.484;2023-05-18T00:34:09;7.63;;;3.40;;
43664;SDS011;29263;48.172;11.484;2023-05-18T00:36:37;5.27;;;3.20;;
43664;SDS011;29263;48.172;11.484;2023-05-18T00:39:03;9.53;;;3.40;;
43664;SDS011;29263;48.172;11.484;2023-05-18T00:41:30;7.33;;;3.20;;
43664;SDS011;29263;48.172;11.484;2023-05-18T00:43:56;6.33;;;3.43;;
43664;SDS011;29263;48.172;11.484;2023-05-18T00:46:23;5.33;;;3.10;;
43664;SDS011;29263;48.172;11.484;2023-05-18T00:48:50;7.80;;;3.93;;
43664;SDS011;29263;48.172;11.484;2023-05-18T00:51:17;8.03;;;3.97;;
43664;SDS011;29263;48.172;11.484;2023-05-18T00:53:44;5.50;;;3.43;;
43664;SDS011;29263;48.172;11.484;2023-05-18T00:56:11;6.50;;;3.93;;
43664;SDS011;29263;48.172;11.484;2023-05-18T00:58:37;7.37;;;3.53;;
43664;SDS011;29263;48.172;11.484;2023-05-18T01:01:04;4.43;;;3.17;;
43664;SDS011;29263;48.172;11.484;2023-05-18T01:03:34;8.23;;;3.87;;
43664;SDS011;29263;48.172;11.484;2023-05-18T01:06:02;8.63;;;3.83;;
43664;SDS011;29263;48.172;11.484;2023-05-18T01:08:31;6.05;;;3.35;;
43664;SDS011;29263;48.172;11.484;2023-05-18T01:11:06;5.60;;;3.77;;
43664;SDS011;29263;48.172;11.484;2023-05-18T01:13:49;7.57;;;4.50;;
43664;SDS011;29263;48.172;11.484;2023-05-18T01:16:25;6.00;;;3.53;;
43664;SDS011;29263;48.172;11.484;2023-05-18T01:24:48;5.90;;;3.47;;
43664;SDS011;29263;48.172;11.484;2023-05-18T01:27:17;5.60;;;3.40;;
43664;SDS011;29263;48.172;11.484;2023-05-18T01:29:49;6.93;;;3.40;;
43664;SDS011;29263;48.172;11.484;2023-05-18T01:32:17;7.73;;;3.93;;
43664;SDS011;29263;48.172;11.484;2023-05-18T01:34:44;7.67;;;3.57;;
43664;SDS011;29263;48.172;11.484;2023-05-18T01:37:09;8.10;;;4.03;;
43664;SDS011;29263;48.172;11.484;2023-05-18T01:39:35;8.20;;;3.60;;
43664;SDS011;29263;48.172;11.484;2023-05-18T01:42:01;4.93;;;3.03;;
43664;SDS011;29263;48.172;11.484;2023-05-18T01:44:35;5.63;;;3.57;;
43664;SDS011;29263;48.172;11.484;2023-05-18T01:47:12;9.43;;;3.90;;
43664;SDS011;29263;48.172;11.484;2023-05-18T01:49:50;7.23;;;3.67;;
43664;SDS011;29263;48.172;11.484;2023-05-18T01:52:23;5.63;;;3.57;;
43664;SDS011;29263;48.172;11.484;2023-05-18T01:55:07;10.27;;;4.73;;
43664;SDS011;29263;48.172;11.484;2023-05-18T01:57:35;8.10;;;3.23;;
43664;SDS011;29263;48.172;11.484;2023-05-18T02:00:03;6.97;;;3.73;;
43664;SDS011;29263;48.172;11.484;2023-05-18T02:02:34;5.27;;;3.10;;
43664;SDS011;29263;48.172;11.484;2023-05-18T02:05:00;6.53;;;3.70;;
43664;SDS011;29263;48.172;11.484;2023-05-18T02:07:26;5.43;;;3.43;;
43664;SDS011;29263;48.172;11.484;2023-05-18T02:09:52;8.00;;;3.53;;
43664;SDS011;29263;48.172;11.484;2023-05-18T02:12:17;6.50;;;3.30;;
43664;SDS011;29263;48.172;11.484;2023-05-18T02:14:43;5.83;;;4.30;;
43664;SDS011;29263;48.172;11.484;2023-05-18T02:17:08;7.83;;;3.63;;
43664;SDS011;29263;48.172;11.484;2023-05-18T02:19:35;6.27;;;3.77;;
43664;SDS011;29263;48.172;11.484;2023-05-18T02:22:02;5.43;;;3.60;;
43664;SDS011;29263;48.172;11.484;2023-05-18T02:24:30;6.47;;;3.65;;
43664;SDS011;29263;48.172;11.484;2023-05-18T02:26:56;6.90;;;3.40;;
43664;SDS011;29263;48.172;11.484;2023-05-18T02:29:22;7.40;;;3.73;;
43664;SDS011;29263;48.172;11.484;2023-05-18T02:31:48;6.73;;;3.33;;
43664;SDS011;29263;48.172;11.484;2023-05-18T02:34:14;5.40;;;3.37;;
43664;SDS011;29263;48.172;11.484;2023-05-18T02:36:41;8.83;;;3.87;;
43664;SDS011;29263;48.172;11.484;2023-05-18T02:39:07;5.07;;;3.50;;
43664;SDS011;29263;48.172;11.484;2023-05-18T02:41:33;9.17;;;3.50;;
43664;SDS011;29263;48.172;11.484;2023-05-18T02:44:03;8.68;;;4.07;;
43664;SDS011;29263;48.172;11.484;2023-05-18T02:46:29;5.27;;;3.37;;
43664;SDS011;29263;48.172;11.484;2023-05-18T02:48:56;8.07;;;4.13;;
43664;SDS011;29263;48.172;11.484;2023-05-18T02:51:22;6.97;;;3.93;;
43664;SDS011;29263;48.172;11.484;2023-05-18T02:53:48;7.03;;;3.90;;
43664;SDS011;29263;48.172;11.484;2023-05-18T02:56:15;8.17;;;3.77;;
43664;SDS011;29263;48.172;11.484;2023-05-18T02:58:41;9.73;;;3.90;;
43664;SDS011;29263;48.172;11.484;2023-05-18T03:01:08;9.00;;;4.37;;
43664;SDS011;29263;48.172;11.484;2023-05-18T03:03:36;8.50;;;3.90;;
43664;SDS011;29263;48.172;11.484;2023-05-18T03:06:02;6.53;;;3.73;;
43664;SDS011;29263;48.172;11.484;2023-05-18T03:08:30;7.80;;;4.00;;
43664;SDS011;29263;48.172;11.484;2023-05-18T03:10:55;5.13;;;3.43;;
43664;SDS011;29263;48.172;11.484;2023-05-18T03:13:22;8.37;;;3.90;;
43664;SDS011;29263;48.172;11.484;2023-05-18T03:15:47;6.90;;;3.90;;
43664;SDS011;29263;48.172;11.484;2023-05-18T03:18:15;9.37;;;4.30;;
43664;SDS011;29263;48.172;11.484;2023-05-18T03:20:41;8.70;;;4.33;;
43664;SDS011;29263;48.172;11.484;2023-05-18T03:23:07;6.60;;;3.73;;
43664;SDS011;29263;48.172;11.484;2023-05-18T03:25:33;8.20;;;3.83;;
43664;SDS011;29263;48.172;11.484;2023-05-18T03:28:01;6.37;;;3.93;;
43664;SDS011;29263;48.172;11.484;2023-05-18T03:30:29;7.97;;;4.03;;
43664;SDS011;29263;48.172;11.484;2023-05-18T03:32:58;6.63;;;3.70;;
43664;SDS011;29263;48.172;11.484;2023-05-18T03:35:25;9.00;;;3.93;;
43664;SDS011;29263;48.172;11.484;2023-05-18T03:37:51;6.00;;;3.50;;
43664;SDS011;29263;48.172;11.484;2023-05-18T03:40:17;5.47;;;3.87;;
43664;SDS011;29263;48.172;11.484;2023-05-18T03:42:43;7.67;;;3.90;;
43664;SDS011;29263;48.172;11.484;2023-05-18T03:45:09;8.53;;;4.03;;
43664;SDS011;29263;48.172;11.484;2023-05-18T03:47:36;8.60;;;4.70;;
43664;SDS011;29263;48.172;11.484;2023-05-18T03:50:03;7.80;;;4.10;;
43664;SDS011;29263;48.172;11.484;2023-05-18T03:52:33;7.37;;;4.50;;
43664;SDS011;29263;48.172;11.484;2023-05-18T03:55:00;10.10;;;4.07;;
43664;SDS011;29263;48.172;11.484;2023-05-18T03:57:26;6.87;;;3.73;;
43664;SDS011;29263;48.172;11.484;2023-05-18T03:59:53;7.57;;;4.30;;
43664;SDS011;29263;48.172;11.484;2023-05-18T04:02:19;9.43;;;4.97;;
43664;SDS011;29263;48.172;11.484;2023-05-18T04:04:45;6.53;;;4.70;;
43664;SDS011;29263;48.172;11.484;2023-05-18T04:07:14;10.23;;;4.57;;
43664;SDS011;29263;48.172;11.484;2023-05-18T04:09:41;8.85;;;4.30;;
43664;SDS011;29263;48.172;11.484;2023-05-18T04:12:07;8.93;;;4.53;;
43664;SDS011;29263;48.172;11.484;2023-05-18T04:14:32;7.43;;;4.33;;
43664;SDS011;29263;48.172;11.484;2023-05-18T04:16:59;9.17;;;5.07;;
43664;SDS011;29263;48.172;11.484;2023-05-18T04:19:35;6.80;;;4.60;;
43664;SDS011;29263;48.172;11.484;2023-05-18T04:22:01;6.87;;;4.40;;
43664;SDS011;29263;48.172;11.484;2023-05-18T04:24:28;8.07;;;4.57;;
43664;SDS011;29263;48.172;11.484;2023-05-18T04:26:56;6.63;;;4.40;;
43664;SDS011;29263;48.172;11.484;2023-05-18T04:29:23;5.73;;;4.27;;
43664;SDS011;29263;48.172;11.484;2023-05-18T04:31:49;6.47;;;4.57;;
43664;SDS011;29263;48.172;11.484;2023-05-18T04:34:15;8.77;;;5.23;;
43664;SDS011;29263;48.172;11.484;2023-05-18T04:36:42;7.77;;;4.70;;
43664;SDS011;29263;48.172;11.484;2023-05-18T04:39:08;6.70;;;4.77;;
43664;SDS011;29263;48.172;11.484;2023-05-18T04:41:35;7.37;;;4.53;;
43664;SDS011;29263;48.172;11.484;2023-05-18T04:44:00;7.00;;;4.63;;
43664;SDS011;29263;48.172;11.484;2023-05-18T04:46:27;8.27;;;4.93;;
43664;SDS011;29263;48.172;11.484;2023-05-18T04:48:53;5.53;;;4.50;;
43664;SDS011;29263;48.172;11.484;2023-05-18T04:51:22;11.27;;;6.10;;
43664;SDS011;29263;48.172;11.484;2023-05-18T04:53:48;9.30;;;5.10;;
43664;SDS011;29263;48.172;11.484;2023-05-18T04:56:15;9.17;;;5.27;;
43664;SDS011;29263;48.172;11.484;2023-05-18T04:58:44;8.23;;;5.03;;
43664;SDS011;29263;48.172;11.484;2023-05-18T05:01:12;9.27;;;5.53;;
43664;SDS011;29263;48.172;11.484;2023-05-18T05:03:56;8.03;;;5.27;;
43664;SDS011;29263;48.172;11.484;2023-05-18T05:06:22;8.30;;;5.43;;
43664;SDS011;29263;48.172;11.484;2023-05-18T05:08:47;7.97;;;5.67;;
43664;SDS011;29263;48.172;11.484;2023-05-18T05:11:13;10.27;;;5.73;;
43664;SDS011;29263;48.172;11.484;2023-05-18T05:13:38;6.93;;;5.03;;
43664;SDS011;29263;48.172;11.484;2023-05-18T05:16:04;7.10;;;5.17;;
43664;SDS011;29263;48.172;11.484;2023-05-18T05:18:30;9.90;;;5.43;;
43664;SDS011;29263;48.172;11.484;2023-05-18T05:20:56;7.07;;;5.27;;
43664;SDS011;29263;48.172;11.484;2023-05-18T05:23:23;12.67;;;5.63;;
43664;SDS011;29263;48.172;11.484;2023-05-18T05:25:48;8.83;;;5.47;;
43664;SDS011;29263;48.172;11.484;2023-05-18T05:28:14;7.93;;;5.13;;
43664;SDS011;29263;48.172;11.484;2023-05-18T05:30:40;9.27;;;5.37;;
43664;SDS011;29263;48.172;11.484;2023-05-18T05:33:05;5.97;;;4.47;;
43664;SDS011;29263;48.172;11.484;2023-05-18T05:35:31;7.87;;;4.93;;
43664;SDS011;29263;48.172;11.484;2023-05-18T05:37:57;11.27;;;4.57;;
43664;SDS011;29263;48.172;11.484;2023-05-18T05:40:22;6.63;;;4.80;;
43664;SDS011;29263;48.172;11.484;2023-05-18T05:42:48;9.87;;;5.10;;
43664;SDS011;29263;48.172;11.484;2023-05-18T05:45:14;6.27;;;4.30;;
43664;SDS011;29263;48.172;11.484;2023-05-18T05:47:40;6.90;;;4.80;;
43664;SDS011;29263;48.172;11.484;2023-05-18T05:50:06;6.57;;;4.47;;
43664;SDS011;29263;48.172;11.484;2023-05-18T05:52:31;6.80;;;4.20;;
43664;SDS011;29263;48.172;11.484;2023-05-18T05:54:57;7.07;;;4.73;;
43664;SDS011;29263;48.172;11.484;2023-05-18T05:57:23;7.17;;;4.67;;
43664;SDS011;29263;48.172;11.484;2023-05-18T05:59:48;7.47;;;3.97;;
43664;SDS011;29263;48.172;11.484;2023-05-18T06:02:14;5.93;;;4.23;;
43664;SDS011;29263;48.172;11.484;2023-05-18T06:04:40;6.60;;;4.13;;
43664;SDS011;29263;48.172;11.484;2023-05-18T06:07:05;7.07;;;3.90;;
43664;SDS011;29263;48.172;11.484;2023-05-18T06:09:31;6.40;;;3.93;;
43664;SDS011;29263;48.172;11.484;2023-05-18T06:11:57;7.63;;;4.23;;
43664;SDS011;29263;48.172;11.484;2023-05-18T06:14:22;7.33;;;3.73;;
43664;SDS011;29263;48.172;11.484;2023-05-18T06:16:48;7.33;;;3.80;;
43664;SDS011;29263;48.172;11.484;2023-05-18T06:19:13;5.50;;;3.73;;
43664;SDS011;29263;48.172;11.484;2023-05-18T06:21:39;6.43;;;4.13;;
43664;SDS011;29263;48.172;11.484;2023-05-18T06:24:05;11.33;;;3.83;;
43664;SDS011;29263;48.172;11.484;2023-05-18T06:26:31;8.37;;;3.70;;
43664;SDS011;29263;48.172;11.484;2023-05-18T06:28:56;5.17;;;3.53;;
43664;SDS011;29263;48.172;11.484;2023-05-18T06:31:22;4.40;;;3.37;;
43664;SDS011;29263;48.172;11.484;2023-05-18T06:33:48;5.83;;;3.33;;
43664;SDS011;29263;48.172;11.484;2023-05-18T06:36:14;7.30;;;3.13;;
43664;SDS011;29263;48.172;11.484;2023-05-18T06:38:40;5.63;;;3.53;;
43664;SDS011;29263;48.172;11.484;2023-05-18T06:41:06;7.65;;;3.83;;
43664;SDS011;29263;48.172;11.484;2023-05-18T06:43:32;7.40;;;3.70;;
43664;SDS011;29263;48.172;11.484;2023-05-18T06:45:57;6.43;;;3.40;;
43664;SDS011;29263;48.172;11.484;2023-05-18T06:48:25;9.45;;;3.35;;
43664;SDS011;29263;48.172;11.484;2023-05-18T06:50:52;7.05;;;3.90;;
43664;SDS011;29263;48.172;11.484;2023-05-18T06:53:18;8.55;;;3.60;;
43664;SDS011;29263;48.172;11.484;2023-05-18T06:55:44;6.70;;;3.35;;
43664;SDS011;29263;48.172;11.484;2023-05-18T06:58:09;6.07;;;3.63;;
43664;SDS011;29263;48.172;11.484;2023-05-18T07:00:36;9.75;;;3.25;;
43664;SDS011;29263;48.172;11.484;2023-05-18T07:03:02;5.27;;;3.43;;
43664;SDS011;29263;48.172;11.484;2023-05-18T07:05:28;7.10;;;3.22;;
43664;SDS011;29263;48.172;11.484;2023-05-18T07:07:54;7.05;;;2.72;;
43664;SDS011;29263;48.172;11.484;2023-05-18T07:10:20;6.13;;;3.23;;
43664;SDS011;29263;48.172;11.484;2023-05-18T07:12:46;4.10;;;2.87;;
43664;SDS011;29263;48.172;11.484;2023-05-18T07:15:13;5.67;;;2.97;;
43664;SDS011;29263;48.172;11.484;2023-05-18T07:17:38;7.80;;;3.20;;
43664;SDS011;29263;48.172;11.484;2023-05-18T07:20:05;6.53;;;2.90;;
43664;SDS011;29263;48.172;11.484;2023-05-18T07:22:31;5.82;;;3.55;;
43664;SDS011;29263;48.172;11.484;2023-05-18T07:24:57;8.23;;;3.25;;
43664;SDS011;29263;48.172;11.484;2023-05-18T07:27:24;9.20;;;2.97;;
43664;SDS011;29263;48.172;11.484;2023-05-18T07:29:50;5.15;;;2.45;;
43664;SDS011;29263;48.172;11.484;2023-05-18T07:32:16;6.10;;;2.90;;
43664;SDS011;29263;48.172;11.484;2023-05-18T07:34:41;6.32;;;3.03;;
43664;SDS011;29263;48.172;11.484;2023-05-18T07:37:07;4.35;;;2.63;;
43664;SDS011;29263;48.172;11.484;2023-05-18T07:39:33;10.77;;;3.00;;
43664;SDS011;29263;48.172;11.484;2023-05-18T07:42:00;6.80;;;3.22;;
43664;SDS011;29263;48.172;11.484;2023-05-18T07:44:26;8.13;;;2.90;;
43664;SDS011;29263;48.172;11.484;2023-05-18T07:46:52;7.80;;;2.67;;
43664;SDS011;29263;48.172;11.484;2023-05-18T07:49:17;6.50;;;2.63;;
43664;SDS011;29263;48.172;11.484;2023-05-18T07:51:43;8.23;;;2.78;;
43664;SDS011;29263;48.172;11.484;2023-05-18T07:54:09;5.30;;;2.58;;
43664;SDS011;29263;48.172;11.484;2023-05-18T07:56:34;5.95;;;2.70;;
43664;SDS011;29263;48.172;11.484;2023-05-18T07:59:00;4.00;;;2.40;;
43664;SDS011;29263;48.172;11.484;2023-05-18T08:01:26;6.65;;;2.40;;
43664;SDS011;29263;48.172;11.484;2023-05-18T08:03:54;5.72;;;2.60;;
43664;SDS011;29263;48.172;11.484;2023-05-18T08:06:20;4.18;;;2.15;;
43664;SDS011;29263;48.172;11.484;2023-05-18T08:08:46;4.35;;;2.20;;
43664;SDS011;29263;48.172;11.484;2023-05-18T08:11:12;8.60;;;2.72;;
43664;SDS011;29263;48.172;11.484;2023-05-18T08:13:37;7.03;;;2.30;;
43664;SDS011;29263;48.172;11.484;2023-05-18T08:16:03;9.13;;;2.60;;
43664;SDS011;29263;48.172;11.484;2023-05-18T08:18:29;4.75;;;2.30;;
43664;SDS011;29263;48.172;11.484;2023-05-18T08:20:55;8.30;;;2.28;;
43664;SDS011;29263;48.172;11.484;2023-05-18T08:23:20;6.05;;;2.72;;
43664;SDS011;29263;48.172;11.484;2023-05-18T08:25:48;4.78;;;2.28;;
43664;SDS011;29263;48.172;11.484;2023-05-18T08:28:14;5.93;;;2.28;;
43664;SDS011;29263;48.172;11.484;2023-05-18T08:30:40;6.25;;;2.40;;
43664;SDS011;29263;48.172;11.484;2023-05-18T08:40:09;4.63;;;2.55;;
43664;SDS011;29263;48.172;11.484;2023-05-18T08:45:58;5.13;;;2.47;;
43664;SDS011;29263;48.172;11.484;2023-05-18T08:48:29;6.32;;;2.17;;
43664;SDS011;29263;48.172;11.484;2023-05-18T08:51:02;6.85;;;2.22;;
43664;SDS011;29263;48.172;11.484;2023-05-18T08:53:32;7.78;;;2.08;;
43664;SDS011;29263;48.172;11.484;2023-05-18T08:56:23;7.97;;;2.03;;
43664;SDS011;29263;48.172;11.484;2023-05-18T08:58:55;5.00;;;2.45;;
43664;SDS011;29263;48.172;11.484;2023-05-18T09:01:25;5.40;;;2.40;;
43664;SDS011;29263;48.172;11.484;2023-05-18T09:03:55;8.23;;;2.92;;
43664;SDS011;29263;48.172;11.484;2023-05-18T09:06:22;5.22;;;2.05;;
43664;SDS011;29263;48.172;11.484;2023-05-18T09:08:48;5.90;;;2.22;;
43664;SDS011;29263;48.172;11.484;2023-05-18T09:11:21;4.05;;;2.00;;
43664;SDS011;29263;48.172;11.484;2023-05-18T09:13:48;8.68;;;2.15;;
43664;SDS011;29263;48.172;11.484;2023-05-18T09:16:17;7.03;;;2.80;;
43664;SDS011;29263;48.172;11.484;2023-05-18T09:18:43;6.43;;;2.63;;
43664;SDS011;29263;48.172;11.484;2023-05-18T09:21:09;5.75;;;2.08;;
43664;SDS011;29263;48.172;11.484;2023-05-18T09:23:37;5.90;;;1.80;;
43664;SDS011;29263;48.172;11.484;2023-05-18T09:26:04;4.10;;;2.35;;
43664;SDS011;29263;48.172;11.484;2023-05-18T09:28:40;3.88;;;1.73;;
43664;SDS011;29263;48.172;11.484;2023-05-18T09:31:15;5.80;;;1.88;;
43664;SDS011;29263;48.172;11.484;2023-05-18T09:33:44;5.78;;;2.25;;
43664;SDS011;29263;48.172;11.484;2023-05-18T09:36:34;5.93;;;1.70;;
43664;SDS011;29263;48.172;11.484;2023-05-18T09:39:11;8.90;;;2.70;;
43664;SDS011;29263;48.172;11.484;2023-05-18T09:41:54;6.30;;;2.10;;
43664;SDS011;29263;48.172;11.484;2023-05-18T09:44:41;7.35;;;2.03;;
43664;SDS011;29263;48.172;11.484;2023-05-18T09:47:28;5.63;;;2.03;;
43664;SDS011;29263;48.172;11.484;2023-05-18T09:49:55;6.43;;;2.75;;
43664;SDS011;29263;48.172;11.484;2023-05-18T09:52:21;6.80;;;2.10;;
43664;SDS011;29263;48.172;11.484;2023-05-18T09:54:51;4.07;;;2.20;;
43664;SDS011;29263;48.172;11.484;2023-05-18T09:57:23;5.85;;;1.90;;
43664;SDS011;29263;48.172;11.484;2023-05-18T10:07:09;7.55;;;2.45;;
43664;SDS011;29263;48.172;11.484;2023-05-18T10:09:36;6.80;;;2.50;;
43664;SDS011;29263;48.172;11.484;2023-05-18T10:14:42;6.35;;;2.58;;
43664;SDS011;29263;48.172;11.484;2023-05-18T10:17:11;5.80;;;1.85;;
43664;SDS011;29263;48.172;11.484;2023-05-18T10:19:38;7.45;;;2.08;;
43664;SDS011;29263;48.172;11.484;2023-05-18T10:22:08;6.25;;;2.13;;
43664;SDS011;29263;48.172;11.484;2023-05-18T10:24:53;9.27;;;2.55;;
43664;SDS011;29263;48.172;11.484;2023-05-18T10:27:29;8.30;;;2.58;;
43664;SDS011;29263;48.172;11.484;2023-05-18T10:29:59;6.65;;;2.25;;
43664;SDS011;29263;48.172;11.484;2023-05-18T10:36:04;6.05;;;2.05;;
43664;SDS011;29263;48.172;11.484;2023-05-18T10:38:37;7.28;;;2.10;;
43664;SDS011;29263;48.172;11.484;2023-05-18T10:41:24;4.43;;;2.10;;
43664;SDS011;29263;48.172;11.484;2023-05-18T10:43:54;8.07;;;2.20;;
43664;SDS011;29263;48.172;11.484;2023-05-18T10:46:27;5.40;;;2.00;;
43664;SDS011;29263;48.172;11.484;2023-05-18T10:48:54;5.78;;;2.20;;
43664;SDS011;29263;48.172;11.484;2023-05-18T10:51:21;7.63;;;2.42;;
43664;SDS011;29263;48.172;11.484;2023-05-18T10:53:48;5.15;;;1.92;;
43664;SDS011;29263;48.172;11.484;2023-05-18T10:56:14;7.22;;;2.42;;
43664;SDS011;29263;48.172;11.484;2023-05-18T11:04:52;3.20;;;1.77;;
43664;SDS011;29263;48.172;11.484;2023-05-18T11:07:27;4.55;;;1.67;;
43664;SDS011;29263;48.172;11.484;2023-05-18T11:14:10;5.70;;;2.13;;
43664;SDS011;29263;48.172;11.484;2023-05-18T11:16:40;7.13;;;2.00;;
43664;SDS011;29263;48.172;11.484;2023-05-18T11:25:54;5.80;;;1.70;;
43664;SDS011;29263;48.172;11.484;2023-05-18T11:28:27;5.20;;;1.67;;
43664;SDS011;29263;48.172;11.484;2023-05-18T11:30:57;3.17;;;1.67;;
43664;SDS011;29263;48.172;11.484;2023-05-18T11:39:02;7.80;;;1.70;;
43664;SDS011;29263;48.172;11.484;2023-05-18T11:41:35;6.43;;;2.13;;
43664;SDS011;29263;48.172;11.484;2023-05-18T11:46:51;5.75;;;1.88;;
43664;SDS011;29263;48.172;11.484;2023-05-18T11:49:18;3.37;;;1.70;;
43664;SDS011;29263;48.172;11.484;2023-05-18T11:52:05;3.72;;;1.38;;
43664;SDS011;29263;48.172;11.484;2023-05-18T11:54:57;2.95;;;1.42;;
43664;SDS011;29263;48.172;11.484;2023-05-18T11:57:24;4.72;;;1.95;;
43664;SDS011;29263;48.172;11.484;2023-05-18T11:59:57;5.32;;;2.05;;
43664;SDS011;29263;48.172;11.484;2023-05-18T12:02:25;5.35;;;1.95;;
43664;SDS011;29263;48.172;11.484;2023-05-18T12:04:55;5.18;;;1.88;;
43664;SDS011;29263;48.172;11.484;2023-05-18T12:07:24;3.55;;;1.65;;
43664;SDS011;29263;48.172;11.484;2023-05-18T12:10:02;5.07;;;1.90;;
43664;SDS011;29263;48.172;11.484;2023-05-18T12:12:31;5.05;;;1.77;;
43664;SDS011;29263;48.172;11.484;2023-05-18T12:15:04;4.68;;;1.83;;
43664;SDS011;29263;48.172;11.484;2023-05-18T12:20:10;3.80;;;1.50;;
43664;SDS011;29263;48.172;11.484;2023-05-18T12:22:41;5.30;;;1.52;;
43664;SDS011;29263;48.172;11.484;2023-05-18T12:25:08;2.63;;;1.67;;
43664;SDS011;29263;48.172;11.484;2023-05-18T12:31:06;4.82;;;1.70;;
43664;SDS011;29263;48.172;11.484;2023-05-18T12:36:52;3.22;;;1.33;;
43664;SDS011;29263;48.172;11.484;2023-05-18T12:40:00;3.15;;;1.67;;
43664;SDS011;29263;48.172;11.484;2023-05-18T12:46:42;5.47;;;1.80;;
43664;SDS011;29263;48.172;11.484;2023-05-18T12:49:22;3.67;;;1.63;;
43664;SDS011;29263;48.172;11.484;2023-05-18T12:51:48;3.13;;;1.70;;
43664;SDS011;29263;48.172;11.484;2023-05-18T12:54:27;2.92;;;1.55;;
43664;SDS011;29263;48.172;11.484;2023-05-18T13:28:30;4.03;;;1.38;;
43664;SDS011;29263;48.172;11.484;2023-05-18T13:31:20;4.53;;;1.65;;
43664;SDS011;29263;48.172;11.484;2023-05-18T13:34:16;5.43;;;1.48;;
43664;SDS011;29263;48.172;11.484;2023-05-18T13:37:09;2.72;;;1.20;;
43664;SDS011;29263;48.172;11.484;2023-05-18T14:01:06;3.67;;;1.80;;
43664;SDS011;29263;48.172;11.484;2023-05-18T14:03:33;2.53;;;1.20;;
43664;SDS011;29263;48.172;11.484;2023-05-18T14:06:03;3.60;;;1.17;;
43664;SDS011;29263;48.172;11.484;2023-05-18T14:11:53;3.17;;;1.58;;
43664;SDS011;29263;48.172;11.484;2023-05-18T14:17:33;3.50;;;1.77;;
43664;SDS011;29263;48.172;11.484;2023-05-18T14:20:05;2.75;;;1.60;;
43664;SDS011;29263;48.172;11.484;2023-05-18T14:22:50;3.25;;;1.42;;
43664;SDS011;29263;48.172;11.484;2023-05-18T14:25:22;4.15;;;1.42;;
43664;SDS011;29263;48.172;11.484;2023-05-18T14:27:50;4.72;;;1.30;;
43664;SDS011;29263;48.172;11.484;2023-05-18T14:30:16;5.07;;;1.40;;
43664;SDS011;29263;48.172;11.484;2023-05-18T14:32:42;4.90;;;2.00;;
43664;SDS011;29263;48.172;11.484;2023-05-18T14:35:42;2.85;;;1.58;;
43664;SDS011;29263;48.172;11.484;2023-05-18T14:38:08;4.50;;;1.33;;
43664;SDS011;29263;48.172;11.484;2023-05-18T14:40:51;3.13;;;1.38;;
43664;SDS011;29263;48.172;11.484;2023-05-18T14:43:17;4.85;;;1.52;;
43664;SDS011;29263;48.172;11.484;2023-05-18T14:45:53;4.43;;;1.83;;
43664;SDS011;29263;48.172;11.484;2023-05-18T14:48:35;3.60;;;1.65;;
43664;SDS011;29263;48.172;11.484;2023-05-18T14:51:01;5.38;;;1.50;;
43664;SDS011;29263;48.172;11.484;2023-05-18T14:53:29;2.95;;;1.60;;
43664;SDS011;29263;48.172;11.484;2023-05-18T14:56:09;4.07;;;1.48;;
43664;SDS011;29263;48.172;11.484;2023-05-18T14:58:35;3.45;;;1.40;;
43664;SDS011;29263;48.172;11.484;2023-05-18T15:01:01;2.83;;;1.20;;
43664;SDS011;29263;48.172;11.484;2023-05-18T15:03:27;3.92;;;1.50;;
43664;SDS011;29263;48.172;11.484;2023-05-18T15:05:53;3.30;;;1.55;;
43664;SDS011;29263;48.172;11.484;2023-05-18T15:08:18;2.92;;;1.58;;
43664;SDS011;29263;48.172;11.484;2023-05-18T15:10:44;3.38;;;1.55;;
43664;SDS011;29263;48.172;11.484;2023-05-18T15:13:09;3.15;;;1.60;;
43664;SDS011;29263;48.172;11.484;2023-05-18T15:15:35;4.07;;;1.60;;
43664;SDS011;29263;48.172;11.484;2023-05-18T15:18:01;2.95;;;1.40;;
43664;SDS011;29263;48.172;11.484;2023-05-18T15:20:26;4.43;;;1.98;;
43664;SDS011;29263;48.172;11.484;2023-05-18T15:22:52;3.30;;;1.90;;
43664;SDS011;29263;48.172;11.484;2023-05-18T15:25:18;4.53;;;1.60;;
43664;SDS011;29263;48.172;11.484;2023-05-18T15:27:43;4.05;;;1.60;;
43664;SDS011;29263;48.172;11.484;2023-05-18T15:30:12;3.88;;;1.40;;
43664;SDS011;29263;48.172;11.484;2023-05-18T15:32:41;4.53;;;1.38;;
43664;SDS011;29263;48.172;11.484;2023-05-18T15:35:07;2.87;;;1.30;;
43664;SDS011;29263;48.172;11.484;2023-05-18T15:37:33;3.83;;;1.67;;
43664;SDS011;29263;48.172;11.484;2023-05-18T15:39:58;6.15;;;2.65;;
43664;SDS011;29263;48.172;11.484;2023-05-18T15:42:24;1.80;;;1.00;;
43664;SDS011;29263;48.172;11.484;2023-05-18T15:44:50;1.58;;;1.10;;
43664;SDS011;29263;48.172;11.484;2023-05-18T15:47:16;3.38;;;1.23;;
43664;SDS011;29263;48.172;11.484;2023-05-18T15:49:42;2.38;;;1.20;;
43664;SDS011;29263;48.172;11.484;2023-05-18T15:52:07;2.00;;;0.88;;
43664;SDS011;29263;48.172;11.484;2023-05-18T15:54:33;2.92;;;0.90;;
43664;SDS011;29263;48.172;11.484;2023-05-18T15:56:59;3.78;;;1.35;;
43664;SDS011;29263;48.172;11.484;2023-05-18T15:59:28;3.05;;;1.00;;
43664;SDS011;29263;48.172;11.484;2023-05-18T16:01:54;3.25;;;1.92;;
43664;SDS011;29263;48.172;11.484;2023-05-18T16:04:19;3.25;;;1.20;;
43664;SDS011;29263;48.172;11.484;2023-05-18T16:06:45;2.67;;;1.30;;
43664;SDS011;29263;48.172;11.484;2023-05-18T16:09:11;2.67;;;1.23;;
43664;SDS011;29263;48.172;11.484;2023-05-18T16:11:36;2.15;;;1.10;;
43664;SDS011;29263;48.172;11.484;2023-05-18T16:14:02;2.97;;;1.17;;
43664;SDS011;29263;48.172;11.484;2023-05-18T16:16:28;2.50;;;1.30;;
43664;SDS011;29263;48.172;11.484;2023-05-18T16:18:54;3.03;;;1.75;;
43664;SDS011;29263;48.172;11.484;2023-05-18T16:21:20;6.10;;;1.55;;
43664;SDS011;29263;48.172;11.484;2023-05-18T16:23:46;3.60;;;1.55;;
43664;SDS011;29263;48.172;11.484;2023-05-18T16:26:12;4.38;;;1.27;;
43664;SDS011;29263;48.172;11.484;2023-05-18T16:28:38;3.92;;;1.05;;
43664;SDS011;29263;48.172;11.484;2023-05-18T16:31:04;4.78;;;1.30;;
43664;SDS011;29263;48.172;11.484;2023-05-18T16:33:35;2.50;;;1.30;;
43664;SDS011;29263;48.172;11.484;2023-05-18T16:36:01;3.45;;;1.25;;
43664;SDS011;29263;48.172;11.484;2023-05-18T16:38:29;2.35;;;1.52;;
43664;SDS011;29263;48.172;11.484;2023-05-18T16:40:55;2.00;;;1.00;;
43664;SDS011;29263;48.172;11.484;2023-05-18T16:43:21;2.50;;;1.10;;
43664;SDS011;29263;48.172;11.484;2023-05-18T16:45:49;4.40;;;1.40;;
43664;SDS011;29263;48.172;11.484;2023-05-18T16:48:15;3.47;;;1.30;;
43664;SDS011;29263;48.172;11.484;2023-05-18T16:50:40;3.63;;;1.38;;